Time;durP1;ratioP1;P1;durP2;ratioP2;P2;SDS_P1;SDS_P2;PMS_P1;PMS_P2;Temp;Humidity;BMP_temperature;BMP_pressure;BME280_temperature;BME280_humidity;BME280_pressure;Samples;Min_cycle;Max_cycle;Signal;HPM_P1;HPM_P2
2024/04/09 00:01:48;;;;;;;;;;;;;;;18.33;44.84;101522.56;11052150;25;20218;-67
2024/04/09 00:06:49;;;;;;;;;;;;;;;17.92;45.33;101523.91;11037701;25;20159;-68
2024/04/09 00:11:48;;;;;;;;;;;;;;;18.48;45.39;101518.25;11045976;25;20353;-67
2024/04/09 00:16:47;;;;;;;;;;;;;;;18.86;44.19;101513.56;11045588;25;20185;-68
2024/04/09 00:21:49;;;;;;;;;;;;;;;19.32;43.44;101509.16;10991177;25;20199;-67
2024/04/09 00:26:48;;;;;;;;;;;;;;;19.37;42.88;101502.63;10992397;25;20716;-68
2024/04/09 00:31:47;;;;;;;;;;;;;;;19.38;43.34;101498.16;11025444;25;20172;-67
2024/04/09 00:36:49;;;;;;;;;;;;;;;19.47;44.78;101500.31;11026575;25;20169;-67
2024/04/09 00:41:49;;;;;;;;;;;;;;;19.35;45.68;101506.34;11003696;25;20125;-67
2024/04/09 00:46:49;;;;;;;;;;;;;;;19.41;45.29;101498.84;11056241;25;20142;-67
2024/04/09 00:51:51;;;;;;;;;;;;;;;19.57;44.55;101495.31;11016846;25;20144;-67
2024/04/09 00:56:51;;;;;;;;;;;;;;;19.47;44.45;101492.34;11019810;25;20443;-68
2024/04/09 01:01:51;;;;;;;;;;;;;;;19.52;44.43;101500.06;11026973;25;20114;-68
2024/04/09 01:06:52;;;;;;;;;;;;;;;19.47;45.00;101500.31;11028622;25;20131;-67
2024/04/09 01:11:51;;;;;;;;;;;;;;;19.49;45.41;101502.91;10988241;25;19934;-68
2024/04/09 01:16:50;;;;;;;;;;;;;;;19.34;46.04;101502.81;11020450;25;20148;-67
2024/04/09 01:21:53;;;;;;;;;;;;;;;19.51;46.51;101499.19;11019429;25;19997;-67
2024/04/09 01:26:56;;;;;;;;;;;;;;;19.62;46.94;101490.59;10988693;25;20150;-67
2024/04/09 01:31:55;;;;;;;;;;;;;;;19.58;46.72;101494.38;10988318;25;20207;-68
2024/04/09 01:36:55;;;;;;;;;;;;;;;19.40;45.99;101490.97;11013663;25;20231;-67
2024/04/09 01:41:56;;;;;;;;;;;;;;;19.39;45.82;101495.44;11019285;25;20178;-67
2024/04/09 01:46:55;;;;;;;;;;;;;;;19.28;46.45;101487.22;11026182;25;20113;-68
2024/04/09 01:51:54;;;;;;;;;;;;;;;19.37;46.42;101491.13;11036542;25;20145;-67
2024/04/09 01:56:52;;;;;;;;;;;;;;;19.08;46.37;101492.81;11029729;25;20181;-67
2024/04/09 02:01:54;;;;;;;;;;;;;;;18.91;46.45;101487.59;11013202;25;20202;-67
2024/04/09 02:06:53;;;;;;;;;;;;;;;18.39;45.46;101489.53;11022875;25;20149;-67
2024/04/09 02:11:52;;;;;;;;;;;;;;;17.87;46.43;101489.63;11021137;25;20416;-67
2024/04/09 02:16:54;;;;;;;;;;;;;;;17.21;47.82;101492.03;11012043;25;20151;-67
2024/04/09 02:21:53;;;;;;;;;;;;;;;17.21;48.37;101480.56;11015378;25;20094;-66
2024/04/09 02:26:52;;;;;;;;;;;;;;;16.72;49.88;101488.22;11023092;25;20743;-66
2024/04/09 02:31:51;;;;;;;;;;;;;;;16.87;50.10;101487.50;11039278;25;20142;-66
2024/04/09 02:36:53;;;;;;;;;;;;;;;17.08;48.81;101498.00;11030618;25;20149;-67
2024/04/09 02:41:52;;;;;;;;;;;;;;;16.84;49.48;101498.25;10985522;25;20163;-67
2024/04/09 02:46:51;;;;;;;;;;;;;;;16.99;49.06;101493.16;11014838;25;20269;-67
2024/04/09 02:51:53;;;;;;;;;;;;;;;17.61;47.52;101490.09;11015536;25;20455;-67
2024/04/09 02:56:52;;;;;;;;;;;;;;;18.17;46.08;101501.31;11043508;25;20192;-67
2024/04/09 03:01:51;;;;;;;;;;;;;;;18.68;43.51;101499.47;11000860;25;20140;-67
2024/04/09 03:06:50;;;;;;;;;;;;;;;18.91;43.63;101503.53;11015820;25;20160;-67
2024/04/09 03:11:51;;;;;;;;;;;;;;;19.08;43.57;101513.19;11023607;25;20796;-67
2024/04/09 03:16:50;;;;;;;;;;;;;;;19.23;42.62;101507.88;11011739;25;20202;-67
2024/04/09 03:21:49;;;;;;;;;;;;;;;19.35;42.38;101509.00;11021734;25;20204;-67
2024/04/09 03:26:48;;;;;;;;;;;;;;;19.31;42.60;101508.28;10993055;25;20136;-67
2024/04/09 03:31:49;;;;;;;;;;;;;;;19.36;42.75;101511.53;11017998;25;20093;-67
2024/04/09 03:36:48;;;;;;;;;;;;;;;19.34;43.01;101521.44;11035554;25;20685;-69
2024/04/09 03:41:47;;;;;;;;;;;;;;;19.15;43.38;101522.56;11008826;25;20475;-67
2024/04/09 03:46:46;;;;;;;;;;;;;;;19.20;43.08;101524.03;11034702;25;20706;-69
2024/04/09 03:51:48;;;;;;;;;;;;;;;19.22;43.36;101530.09;11026612;25;20828;-68
2024/04/09 03:56:47;;;;;;;;;;;;;;;19.57;43.15;101537.88;11036829;25;20226;-67
2024/04/09 04:01:45;;;;;;;;;;;;;;;19.54;42.55;101538.06;10996774;25;20698;-67
2024/04/09 04:06:45;;;;;;;;;;;;;;;19.00;43.76;101534.91;11021746;25;20827;-67
2024/04/09 04:11:46;;;;;;;;;;;;;;;18.76;45.16;101536.25;11033520;25;20172;-67
2024/04/09 04:16:45;;;;;;;;;;;;;;;18.67;46.34;101550.03;11029425;25;20048;-68
2024/04/09 04:21:44;;;;;;;;;;;;;;;18.97;46.09;101545.69;11002150;25;20688;-68
2024/04/09 04:26:43;;;;;;;;;;;;;;;19.34;45.40;101547.16;11027257;25;20228;-67
2024/04/09 04:31:44;;;;;;;;;;;;;;;19.05;45.83;101554.13;10999722;25;20269;-67
2024/04/09 04:36:43;;;;;;;;;;;;;;;18.81;46.24;101550.16;11036697;25;20179;-67
2024/04/09 04:41:42;;;;;;;;;;;;;;;18.78;46.52;101544.97;11003511;25;20138;-66
2024/04/09 04:46:41;;;;;;;;;;;;;;;19.03;46.54;101553.34;11011089;25;20147;-67
2024/04/09 04:51:42;;;;;;;;;;;;;;;19.23;46.16;101547.75;11013324;25;20303;-67
2024/04/09 04:56:42;;;;;;;;;;;;;;;19.22;46.79;101554.00;11023462;25;20168;-67
2024/04/09 05:01:41;;;;;;;;;;;;;;;18.92;47.73;101547.75;11017472;25;20109;-68
2024/04/09 05:06:42;;;;;;;;;;;;;;;18.71;48.72;101562.22;10990372;25;20152;-67
2024/04/09 05:11:41;;;;;;;;;;;;;;;18.76;49.21;101554.84;10990756;25;20193;-66
2024/04/09 05:16:40;;;;;;;;;;;;;;;19.10;48.48;101554.72;10950668;25;20151;-66
2024/04/09 05:21:39;;;;;;;;;;;;;;;19.18;47.56;101548.97;10977664;25;19945;-67
2024/04/09 05:26:40;;;;;;;;;;;;;;;19.16;47.35;101551.69;10985911;25;20156;-67
2024/04/09 05:31:45;;;;;;;;;;;;;;;19.47;47.13;101561.50;10978761;25;20755;-67
2024/04/09 05:36:45;;;;;;;;;;;;;;;19.71;45.71;101557.41;10982053;25;20711;-69
2024/04/09 05:41:46;;;;;;;;;;;;;;;18.67;46.44;101556.19;10988211;25;20160;-68
2024/04/09 05:46:45;;;;;;;;;;;;;;;18.65;46.79;101555.44;10995562;25;20628;-68
2024/04/09 05:51:44;;;;;;;;;;;;;;;18.89;46.70;101547.91;10993330;25;20682;-68
2024/04/09 05:56:51;;;;;;;;;;;;;;;19.28;45.99;101560.78;10996411;25;20196;-66
2024/04/09 06:02:13;;;;;;;;;;;;;;;19.52;42.84;101569.22;10982867;25;20334;-66
2024/04/09 06:07:13;;;;;;;;;;;;;;;19.48;42.44;101579.16;10988654;25;20253;-65
2024/04/09 06:12:15;;;;;;;;;;;;;;;19.74;40.94;101583.84;10978941;25;20068;-65
2024/04/09 06:17:14;;;;;;;;;;;;;;;19.69;40.74;101577.09;11007883;25;20230;-65
2024/04/09 06:22:13;;;;;;;;;;;;;;;19.77;41.02;101575.69;11023427;25;20825;-67
2024/04/09 06:27:15;;;;;;;;;;;;;;;19.71;41.54;101570.72;10994719;25;20134;-66
2024/04/09 06:32:14;;;;;;;;;;;;;;;19.83;41.70;101571.81;10990425;25;20190;-67
2024/04/09 06:37:13;;;;;;;;;;;;;;;19.70;43.75;101578.78;10998315;25;20764;-68
2024/04/09 06:42:15;;;;;;;;;;;;;;;19.60;45.38;101569.63;10988822;25;20228;-69
2024/04/09 06:47:16;;;;;;;;;;;;;;;19.44;46.33;101578.50;10999824;25;20456;-70
2024/04/09 06:52:15;;;;;;;;;;;;;;;19.61;45.59;101580.19;10984909;25;20234;-69
2024/04/09 06:57:14;;;;;;;;;;;;;;;19.69;44.25;101585.94;10992477;25;20226;-67
2024/04/09 07:02:13;;;;;;;;;;;;;;;19.95;43.10;101581.72;10986117;25;20102;-68
2024/04/09 07:07:14;;;;;;;;;;;;;;;20.08;41.69;101582.75;10986068;25;19927;-67
2024/04/09 07:12:14;;;;;;;;;;;;;;;20.28;41.09;101571.72;10892669;25;19926;-68
2024/04/09 07:17:13;;;;;;;;;;;;;;;20.37;41.10;101577.50;10982838;25;19946;-69
2024/04/09 07:22:15;;;;;;;;;;;;;;;20.54;39.51;101579.97;10981299;25;20200;-68
2024/04/09 07:27:13;;;;;;;;;;;;;;;20.50;39.07;101571.31;10981935;25;20270;-69
2024/04/09 07:32:15;;;;;;;;;;;;;;;20.63;37.95;101574.06;10988089;25;20139;-68
2024/04/09 07:37:17;;;;;;;;;;;;;;;20.78;36.68;101575.78;10976018;25;20853;-67
2024/04/09 07:42:16;;;;;;;;;;;;;;;20.89;35.62;101578.66;10991207;25;20243;-67
2024/04/09 07:47:15;;;;;;;;;;;;;;;20.88;34.24;101571.59;10994951;25;20077;-67
2024/04/09 07:52:14;;;;;;;;;;;;;;;20.88;33.98;101574.25;10894662;25;20986;-67
2024/04/09 07:57:16;;;;;;;;;;;;;;;20.98;34.15;101578.06;10888643;25;20052;-67
2024/04/09 08:02:15;;;;;;;;;;;;;;;20.98;33.11;101577.22;10983128;25;20155;-68
2024/04/09 08:07:16;;;;;;;;;;;;;;;20.85;34.03;101565.63;10984178;25;20178;-67
2024/04/09 08:12:17;;;;;;;;;;;;;;;20.41;34.76;101555.06;11003066;25;20084;-67
2024/04/09 08:17:16;;;;;;;;;;;;;;;20.16;36.07;101561.84;10995362;25;20294;-68
2024/04/09 08:22:16;;;;;;;;;;;;;;;20.33;35.31;101544.03;10994653;25;20313;-68
2024/04/09 08:27:18;;;;;;;;;;;;;;;20.56;35.19;101551.44;10995777;25;20268;-68
2024/04/09 08:32:17;;;;;;;;;;;;;;;20.45;34.44;101537.94;11002585;25;20161;-68
2024/04/09 08:37:24;;;;;;;;;;;;;;;20.51;33.61;101546.41;10955342;25;20314;-68
2024/04/09 08:42:26;;;;;;;;;;;;;;;20.73;35.33;101536.09;10994542;25;20732;-67
2024/04/09 08:47:25;;;;;;;;;;;;;;;20.70;36.04;101541.66;10927498;25;19951;-68
2024/04/09 08:52:25;;;;;;;;;;;;;;;20.94;36.08;101527.72;10837338;25;20822;-66
2024/04/09 08:57:28;;;;;;;;;;;;;;;20.98;36.44;101527.41;10865745;25;19926;-68
2024/04/09 09:02:28;;;;;;;;;;;;;;;20.77;35.19;101519.94;10920443;25;20073;-68
2024/04/09 09:07:27;;;;;;;;;;;;;;;21.15;36.21;101527.22;10982929;25;20651;-67
2024/04/09 09:12:28;;;;;;;;;;;;;;;21.63;34.13;101514.28;10987976;25;20266;-69
2024/04/09 09:17:29;;;;;;;;;;;;;;;21.83;34.11;101524.47;10982641;25;20159;-69
2024/04/09 09:22:29;;;;;;;;;;;;;;;21.78;33.07;101525.72;10963619;25;20143;-68
2024/04/09 09:27:30;;;;;;;;;;;;;;;22.13;33.14;101520.69;10996107;25;20175;-69
2024/04/09 09:32:29;;;;;;;;;;;;;;;22.29;31.43;101508.81;10985238;25;20188;-67
2024/04/09 09:37:30;;;;;;;;;;;;;;;22.58;30.93;101506.75;11000216;25;20665;-68
2024/04/09 09:42:34;;;;;;;;;;;;;;;22.54;30.34;101494.59;11001606;25;20761;-68
2024/04/09 09:47:34;;;;;;;;;;;;;;;22.26;31.04;101487.69;10983673;25;20284;-68
2024/04/09 09:52:33;;;;;;;;;;;;;;;22.13;31.38;101485.97;10992894;25;20181;-68
2024/04/09 09:57:36;;;;;;;;;;;;;;;21.87;32.34;101485.06;11006682;25;20771;-67
2024/04/09 10:02:35;;;;;;;;;;;;;;;21.74;32.57;101476.19;11002827;25;20139;-67
2024/04/09 10:07:39;;;;;;;;;;;;;;;21.80;32.70;101473.06;10976181;25;20132;-68
2024/04/09 10:12:40;;;;;;;;;;;;;;;22.20;31.67;101468.53;10976597;25;20219;-67
2024/04/09 10:17:49;;;;;;;;;;;;;;;21.86;31.81;101464.66;10989183;25;19933;-67
2024/04/09 10:22:53;;;;;;;;;;;;;;;21.94;31.70;101460.53;10959630;25;19927;-68
2024/04/09 10:28:04;;;;;;;;;;;;;;;22.04;31.74;101445.56;10990928;25;20140;-68
2024/04/09 10:33:03;;;;;;;;;;;;;;;22.14;29.67;101453.78;10993727;25;20124;-68
2024/04/09 10:38:04;;;;;;;;;;;;;;;22.23;29.28;101453.19;10988488;25;20157;-67
2024/04/09 10:43:07;;;;;;;;;;;;;;;22.47;30.04;101437.22;10983875;25;20209;-68
2024/04/09 10:48:07;;;;;;;;;;;;;;;22.61;29.22;101429.03;10972406;25;20105;-68
2024/04/09 10:53:06;;;;;;;;;;;;;;;22.74;29.05;101432.56;10995106;25;20203;-68
2024/04/09 10:58:15;;;;;;;;;;;;;;;22.58;28.24;101423.91;10988210;25;20097;-67
2024/04/09 11:03:14;;;;;;;;;;;;;;;22.54;28.34;101421.56;10957911;25;20158;-68
2024/04/09 11:08:13;;;;;;;;;;;;;;;22.41;27.66;101417.13;10980151;25;19926;-68
2024/04/09 11:13:15;;;;;;;;;;;;;;;22.49;28.74;101408.53;10989858;25;20232;-69
2024/04/09 11:18:20;;;;;;;;;;;;;;;22.67;27.55;101401.03;10993402;25;20230;-68
2024/04/09 11:23:21;;;;;;;;;;;;;;;22.57;27.62;101389.28;10982580;25;20334;-69
2024/04/09 11:28:22;;;;;;;;;;;;;;;22.94;27.24;101390.13;10991415;25;20741;-68
2024/04/09 11:33:22;;;;;;;;;;;;;;;22.70;28.36;101382.97;10990977;25;20410;-70
2024/04/09 11:38:22;;;;;;;;;;;;;;;22.62;27.47;101379.13;10985562;25;20344;-70
2024/04/09 11:43:24;;;;;;;;;;;;;;;22.60;27.20;101365.00;10997822;25;20182;-68
2024/04/09 11:48:23;;;;;;;;;;;;;;;23.03;26.57;101350.16;10993635;25;20222;-68
2024/04/09 11:53:22;;;;;;;;;;;;;;;22.96;27.47;101350.75;10988464;25;20214;-68
2024/04/09 11:58:24;;;;;;;;;;;;;;;22.74;27.52;101330.13;10974103;25;20152;-67
2024/04/09 12:03:23;;;;;;;;;;;;;;;22.84;27.98;101333.81;10984537;25;20312;-68
2024/04/09 12:08:22;;;;;;;;;;;;;;;22.76;28.02;101328.19;10989094;25;20087;-68
2024/04/09 12:13:22;;;;;;;;;;;;;;;22.83;26.82;101322.25;11005228;25;20178;-68
2024/04/09 12:18:23;;;;;;;;;;;;;;;23.01;27.15;101317.38;11000669;25;20209;-68
2024/04/09 12:23:23;;;;;;;;;;;;;;;22.90;27.42;101311.97;10987149;25;20193;-67
2024/04/09 12:28:22;;;;;;;;;;;;;;;22.88;27.28;101309.41;10995504;25;20161;-68
2024/04/09 12:33:22;;;;;;;;;;;;;;;22.89;28.31;101304.91;11007677;25;19931;-68
2024/04/09 12:38:28;;;;;;;;;;;;;;;22.97;28.44;101290.97;10994301;25;20048;-67
2024/04/09 12:43:27;;;;;;;;;;;;;;;23.20;28.36;101290.06;10992948;25;19926;-67
2024/04/09 12:48:26;;;;;;;;;;;;;;;23.50;27.85;101282.34;10889504;25;20092;-67
2024/04/09 12:53:25;;;;;;;;;;;;;;;24.05;26.01;101276.09;10898187;25;20246;-69
2024/04/09 12:58:26;;;;;;;;;;;;;;;23.56;26.82;101276.50;10913578;25;19951;-68
2024/04/09 13:03:25;;;;;;;;;;;;;;;23.48;27.77;101275.41;10906924;25;20223;-68
2024/04/09 13:08:25;;;;;;;;;;;;;;;23.23;28.13;101260.38;10938833;25;19941;-68
2024/04/09 13:13:28;;;;;;;;;;;;;;;23.28;27.54;101271.56;10932523;25;20406;-66
2024/04/09 13:18:27;;;;;;;;;;;;;;;23.30;27.52;101264.28;10935212;25;21194;-67
2024/04/09 13:23:26;;;;;;;;;;;;;;;23.51;28.38;101253.72;10929839;25;20029;-68
2024/04/09 13:28:28;;;;;;;;;;;;;;;23.57;28.24;101259.47;10916118;25;20099;-68
2024/04/09 13:33:28;;;;;;;;;;;;;;;23.74;28.07;101247.44;10947760;25;20208;-68
2024/04/09 13:38:27;;;;;;;;;;;;;;;23.47;28.03;101245.09;10926882;25;20898;-67
2024/04/09 13:43:29;;;;;;;;;;;;;;;23.26;29.01;101246.78;10921133;25;20296;-67
2024/04/09 13:48:28;;;;;;;;;;;;;;;23.39;28.35;101236.81;10918980;25;20279;-69
2024/04/09 13:53:28;;;;;;;;;;;;;;;23.43;28.09;101237.41;10937819;25;20218;-67
2024/04/09 13:58:29;;;;;;;;;;;;;;;23.68;27.53;101234.53;10925218;25;20394;-68
2024/04/09 14:03:28;;;;;;;;;;;;;;;23.33;29.30;101224.75;10918704;25;20199;-68
2024/04/09 14:08:28;;;;;;;;;;;;;;;23.31;29.74;101229.38;10922200;25;20209;-69
2024/04/09 14:13:29;;;;;;;;;;;;;;;23.37;29.18;101221.81;10907236;25;20202;-68
2024/04/09 14:18:31;;;;;;;;;;;;;;;23.42;29.79;101225.00;10937783;25;20248;-68
2024/04/09 14:23:30;;;;;;;;;;;;;;;23.38;29.38;101223.53;10913740;25;20281;-68
2024/04/09 14:28:31;;;;;;;;;;;;;;;23.39;30.21;101223.44;10936003;25;20325;-68
2024/04/09 14:33:30;;;;;;;;;;;;;;;23.37;30.00;101216.47;10938951;25;20201;-68
2024/04/09 14:38:30;;;;;;;;;;;;;;;23.39;29.59;101220.75;10932045;25;20223;-69
2024/04/09 14:43:31;;;;;;;;;;;;;;;23.62;29.59;101218.94;10953334;25;20699;-68
2024/04/09 14:48:31;;;;;;;;;;;;;;;23.91;29.09;101214.75;10935405;25;20129;-68
2024/04/09 14:53:31;;;;;;;;;;;;;;;23.65;29.42;101216.88;10936564;25;20305;-69
2024/04/09 14:58:33;;;;;;;;;;;;;;;23.81;29.12;101215.63;10916857;25;20293;-68
2024/04/09 15:03:32;;;;;;;;;;;;;;;23.76;29.29;101218.69;10931800;25;19934;-68
2024/04/09 15:08:32;;;;;;;;;;;;;;;23.74;29.55;101210.78;10941359;25;20132;-68
2024/04/09 15:13:34;;;;;;;;;;;;;;;23.74;29.67;101210.78;10944146;25;20194;-68
2024/04/09 15:18:33;;;;;;;;;;;;;;;23.80;29.77;101204.06;10922149;25;20164;-67
2024/04/09 15:23:32;;;;;;;;;;;;;;;23.70;29.55;101217.34;10918863;25;20240;-68
2024/04/09 15:28:34;;;;;;;;;;;;;;;23.93;29.63;101211.97;10930611;25;20426;-68
2024/04/09 15:33:36;;;;;;;;;;;;;;;24.51;28.51;101219.59;10908532;25;20343;-69
2024/04/09 15:38:35;;;;;;;;;;;;;;;25.05;28.09;101221.28;10921027;25;20363;-68
2024/04/09 15:43:36;;;;;;;;;;;;;;;25.08;27.91;101217.47;10931872;25;20739;-68
2024/04/09 15:48:35;;;;;;;;;;;;;;;24.67;28.71;101223.69;10921976;25;20192;-68
2024/04/09 15:53:35;;;;;;;;;;;;;;;24.73;28.61;101223.97;10933636;25;20418;-67
2024/04/09 15:58:36;;;;;;;;;;;;;;;24.84;28.06;101228.44;10934652;25;20180;-69
2024/04/09 16:03:36;;;;;;;;;;;;;;;24.66;29.06;101233.53;10928786;25;20209;-68
2024/04/09 16:08:36;;;;;;;;;;;;;;;23.72;30.26;101241.31;10895446;25;20180;-68
2024/04/09 16:13:38;;;;;;;;;;;;;;;23.21;31.30;101243.59;10916896;25;20221;-68
2024/04/09 16:18:41;;;;;;;;;;;;;;;22.97;31.29;101242.84;10930601;25;20165;-67
2024/04/09 16:23:41;;;;;;;;;;;;;;;22.99;31.31;101246.22;10938871;25;20255;-67
2024/04/09 16:28:42;;;;;;;;;;;;;;;23.17;31.22;101260.84;10819315;25;19926;-69
2024/04/09 16:33:41;;;;;;;;;;;;;;;23.04;31.35;101257.41;10829779;25;20249;-68
2024/04/09 16:38:40;;;;;;;;;;;;;;;23.08;31.21;101256.22;10819684;25;20916;-67
2024/04/09 16:43:39;;;;;;;;;;;;;;;22.88;30.98;101258.59;10858414;25;20137;-67
2024/04/09 16:48:43;;;;;;;;;;;;;;;22.91;30.59;101252.19;10919953;25;19982;-69
2024/04/09 16:53:42;;;;;;;;;;;;;;;22.72;30.07;101244.72;10920494;25;20817;-67
2024/04/09 16:58:42;;;;;;;;;;;;;;;22.93;29.78;101246.69;10918102;25;20205;-69
2024/04/09 17:03:43;;;;;;;;;;;;;;;22.86;29.50;101251.69;10797723;25;19931;-69
2024/04/09 17:08:43;;;;;;;;;;;;;;;23.14;28.72;101253.06;10838891;25;20442;-67
2024/04/09 17:13:42;;;;;;;;;;;;;;;22.96;29.28;101246.47;10909950;25;20738;-67
2024/04/09 17:18:46;;;;;;;;;;;;;;;;;;10915389;25;20360;-68
2024/04/09 17:23:47;;;;;;;;;;;;;;;22.89;29.71;101256.78;10787265;25;19934;-68
2024/04/09 17:28:46;;;;;;;;;;;;;;;22.98;29.57;101260.56;10852723;25;20209;-68
2024/04/09 17:33:45;;;;;;;;;;;;;;;23.03;29.39;101269.09;10915216;25;20495;-67
2024/04/09 17:38:47;;;;;;;;;;;;;;;23.04;29.89;101271.66;10924647;25;20218;-67
2024/04/09 17:43:48;;;;;;;;;;;;;;;22.81;30.33;101267.22;10914045;25;20156;-67
2024/04/09 17:48:47;;;;;;;;;;;;;;;22.80;30.43;101271.72;10811750;25;19931;-68
2024/04/09 17:53:48;;;;;;;;;;;;;;;22.87;30.56;101269.44;10866186;25;20133;-68
2024/04/09 17:58:47;;;;;;;;;;;;;;;22.96;30.58;101281.25;10837145;25;21008;-68
2024/04/09 18:03:46;;;;;;;;;;;;;;;22.87;30.71;101280.94;10856844;25;20259;-68
2024/04/09 18:08:45;;;;;;;;;;;;;;;22.84;30.82;101283.00;10803687;25;19946;-68
2024/04/09 18:13:46;;;;;;;;;;;;;;;22.73;30.99;101285.63;10823724;25;19931;-68
2024/04/09 18:18:46;;;;;;;;;;;;;;;22.62;31.50;101283.75;10827992;25;20025;-68
2024/04/09 18:23:48;;;;;;;;;;;;;;;22.60;31.48;101291.03;10821237;25;20233;-67
2024/04/09 18:28:49;;;;;;;;;;;;;;;22.41;31.85;101291.53;10844352;25;20326;-67
2024/04/09 18:33:48;;;;;;;;;;;;;;;22.32;32.09;101284.22;10916701;25;20202;-69
2024/04/09 18:38:48;;;;;;;;;;;;;;;22.16;32.66;101285.44;10929837;25;20306;-68
2024/04/09 18:43:47;;;;;;;;;;;;;;;22.20;32.36;101276.22;10920247;25;20170;-69
2024/04/09 18:48:48;;;;;;;;;;;;;;;22.08;32.41;101282.47;10912657;25;20270;-67
2024/04/09 18:53:47;;;;;;;;;;;;;;;22.09;31.85;101281.53;10810661;25;20195;-68
2024/04/09 18:58:46;;;;;;;;;;;;;;;22.13;31.42;101278.50;10887312;25;20236;-68
2024/04/09 19:03:45;;;;;;;;;;;;;;;22.13;31.26;101275.00;10924770;25;20297;-67
2024/04/09 19:08:48;;;;;;;;;;;;;;;22.07;31.48;101275.44;10916683;25;20126;-67
2024/04/09 19:13:47;;;;;;;;;;;;;;;22.07;31.47;101267.41;10892637;25;19943;-68
2024/04/09 19:18:46;;;;;;;;;;;;;;;22.02;31.71;101276.63;10808231;25;19933;-67
2024/04/09 19:23:47;;;;;;;;;;;;;;;21.99;31.62;101267.97;10851115;25;20279;-68
2024/04/09 19:28:46;;;;;;;;;;;;;;;21.88;31.90;101273.22;10826985;25;19993;-68
2024/04/09 19:33:45;;;;;;;;;;;;;;;21.78;31.91;101275.69;10860698;25;20231;-68
2024/04/09 19:38:44;;;;;;;;;;;;;;;21.63;32.28;101276.75;10858706;25;20007;-67
2024/04/09 19:43:45;;;;;;;;;;;;;;;21.48;32.60;101275.19;10842973;25;20394;-67
2024/04/09 19:48:44;;;;;;;;;;;;;;;21.42;32.59;101280.94;10930106;25;20317;-68
2024/04/09 19:53:43;;;;;;;;;;;;;;;21.39;32.70;101278.50;10920092;25;19983;-67
2024/04/09 19:58:53;;;;;;;;;;;;;;;21.21;33.08;101285.09;10931132;25;20401;-67
2024/04/09 20:03:52;;;;;;;;;;;;;;;21.23;33.06;101288.50;10911412;25;19940;-67
2024/04/09 20:08:52;;;;;;;;;;;;;;;21.02;33.20;101283.66;10925861;25;20137;-68
2024/04/09 20:13:54;;;;;;;;;;;;;;;20.96;33.43;101285.91;10932799;25;20319;-68
2024/04/09 20:18:53;;;;;;;;;;;;;;;20.83;33.56;101283.19;10929024;25;20376;-68
2024/04/09 20:23:52;;;;;;;;;;;;;;;20.69;33.96;101288.59;10910202;25;20214;-67
2024/04/09 20:28:53;;;;;;;;;;;;;;;20.61;34.07;101290.91;10912423;25;20799;-67
2024/04/09 20:33:52;;;;;;;;;;;;;;;20.33;34.33;101290.03;10928497;25;20345;-66
2024/04/09 20:38:51;;;;;;;;;;;;;;;20.42;34.39;101290.41;10913209;25;20171;-67
2024/04/09 20:43:50;;;;;;;;;;;;;;;20.40;34.66;101303.81;10913491;25;20765;-67
2024/04/09 20:48:51;;;;;;;;;;;;;;;20.36;34.42;101304.13;10913462;25;20171;-67
2024/04/09 20:53:51;;;;;;;;;;;;;;;20.69;34.10;101297.44;10942898;25;19992;-67
2024/04/09 20:58:50;;;;;;;;;;;;;;;20.58;34.59;101301.75;10917712;25;20082;-68
2024/04/09 21:03:49;;;;;;;;;;;;;;;20.65;34.45;101303.94;10926260;25;20760;-68
2024/04/09 21:08:50;;;;;;;;;;;;;;;20.32;34.73;101300.81;10948604;25;20620;-68
2024/04/09 21:13:49;;;;;;;;;;;;;;;20.66;34.81;101302.13;10907036;25;20187;-68
2024/04/09 21:18:48;;;;;;;;;;;;;;;20.82;34.70;101297.47;10936471;25;20227;-68
2024/04/09 21:23:47;;;;;;;;;;;;;;;20.37;34.88;101288.06;10921863;25;20202;-67
2024/04/09 21:28:49;;;;;;;;;;;;;;;20.47;35.10;101289.16;10951392;25;20322;-67
2024/04/09 21:33:48;;;;;;;;;;;;;;;20.33;34.93;101288.34;10943688;25;20193;-68
2024/04/09 21:38:47;;;;;;;;;;;;;;;20.07;36.10;101284.69;10933190;25;20270;-68
2024/04/09 21:43:47;;;;;;;;;;;;;;;20.05;35.80;101275.91;10924775;25;20251;-68
2024/04/09 21:48:48;;;;;;;;;;;;;;;19.94;36.08;101270.44;10953186;25;20340;-67
2024/04/09 21:53:48;;;;;;;;;;;;;;;19.53;36.39;101271.25;10944055;25;20180;-67
2024/04/09 21:58:47;;;;;;;;;;;;;;;19.48;36.92;101277.78;10948307;25;19926;-68
2024/04/09 22:03:48;;;;;;;;;;;;;;;19.64;36.46;101271.44;10936397;25;20245;-67
2024/04/09 22:08:47;;;;;;;;;;;;;;;19.49;36.81;101275.03;10933017;25;20100;-68
2024/04/09 22:13:46;;;;;;;;;;;;;;;19.70;36.10;101270.16;11002333;25;20153;-67
2024/04/09 22:18:45;;;;;;;;;;;;;;;19.54;36.41;101264.13;10958856;25;20389;-69
2024/04/09 22:23:46;;;;;;;;;;;;;;;19.46;36.15;101268.09;10932911;25;20188;-68
2024/04/09 22:28:45;;;;;;;;;;;;;;;19.44;36.28;101262.03;10948531;25;20186;-67
2024/04/09 22:33:44;;;;;;;;;;;;;;;19.07;36.47;101253.69;10945284;25;20288;-69
2024/04/09 22:38:45;;;;;;;;;;;;;;;19.19;36.38;101247.63;10955696;25;20278;-67
2024/04/09 22:43:44;;;;;;;;;;;;;;;19.22;36.04;101247.44;10956721;25;20246;-69
2024/04/09 22:48:43;;;;;;;;;;;;;;;19.40;35.43;101243.66;10943555;25;20149;-68
2024/04/09 22:53:47;;;;;;;;;;;;;;;19.62;34.91;101245.84;10947268;25;20762;-68
2024/04/09 22:58:45;;;;;;;;;;;;;;;19.48;34.73;101235.22;10954283;25;19975;-68
2024/04/09 23:03:44;;;;;;;;;;;;;;;19.48;34.81;101238.75;10934154;25;20293;-67
2024/04/09 23:08:43;;;;;;;;;;;;;;;19.57;34.12;101242.63;10918068;25;20846;-66
2024/04/09 23:13:45;;;;;;;;;;;;;;;19.40;34.24;101241.00;10967656;25;20212;-68
2024/04/09 23:18:44;;;;;;;;;;;;;;;19.32;34.70;101232.63;10959262;25;20054;-67
2024/04/09 23:23:43;;;;;;;;;;;;;;;19.29;34.68;101236.34;10958300;25;20116;-67
2024/04/09 23:28:41;;;;;;;;;;;;;;;19.31;34.91;101228.25;10956286;25;20123;-69
2024/04/09 23:33:42;;;;;;;;;;;;;;;19.61;37.12;101228.19;10945047;25;20235;-67
2024/04/09 23:38:42;;;;;;;;;;;;;;;19.73;37.61;101235.41;10947328;25;20146;-66
2024/04/09 23:43:41;;;;;;;;;;;;;;;19.72;37.75;101231.88;10958664;25;20184;-67
2024/04/09 23:48:48;;;;;;;;;;;;;;;19.67;38.29;101228.66;10963197;25;20258;-67
2024/04/09 23:53:47;;;;;;;;;;;;;;;19.99;37.10;101225.75;10948985;25;20210;-68
2024/04/09 23:58:47;;;;;;;;;;;;;;;20.07;36.93;101221.66;10958865;25;20747;-67
